sensor_id;sensor_type;location;lat;lon;timestamp;temperature;humidity
4520;DHT22;2272;49.226;8.108;2022-11-20T00:00:38;2.80;99.90
4520;DHT22;2272;49.226;8.108;2022-11-20T00:03:04;2.80;99.90
4520;DHT22;2272;49.226;8.108;2022-11-20T00:05:33;2.80;99.90
4520;DHT22;2272;49.226;8.108;2022-11-20T00:08:00;2.80;99.90
4520;DHT22;2272;49.226;8.108;2022-11-20T00:10:27;2.80;99.90
4520;DHT22;2272;49.226;8.108;2022-11-20T00:12:53;2.80;99.90
4520;DHT22;2272;49.226;8.108;2022-11-20T00:15:21;2.80;99.90
4520;DHT22;2272;49.226;8.108;2022-11-20T00:17:47;2.90;99.90
4520;DHT22;2272;49.226;8.108;2022-11-20T00:20:14;2.90;99.90
4520;DHT22;2272;49.226;8.108;2022-11-20T00:22:43;2.90;99.90
4520;DHT22;2272;49.226;8.108;2022-11-20T00:25:09;2.90;99.90
4520;DHT22;2272;49.226;8.108;2022-11-20T00:27:36;2.90;99.90
4520;DHT22;2272;49.226;8.108;2022-11-20T00:30:04;3.00;99.90
4520;DHT22;2272;49.226;8.108;2022-11-20T00:32:31;3.00;99.90
4520;DHT22;2272;49.226;8.108;2022-11-20T00:34:57;2.90;99.90
4520;DHT22;2272;49.226;8.108;2022-11-20T00:37:25;2.90;99.90
4520;DHT22;2272;49.226;8.108;2022-11-20T00:39:53;2.90;99.90
4520;DHT22;2272;49.226;8.108;2022-11-20T00:42:20;3.00;99.90
4520;DHT22;2272;49.226;8.108;2022-11-20T00:44:46;3.00;99.90
4520;DHT22;2272;49.226;8.108;2022-11-20T00:47:13;3.00;99.90
4520;DHT22;2272;49.226;8.108;2022-11-20T00:49:40;3.00;99.90
4520;DHT22;2272;49.226;8.108;2022-11-20T00:52:07;3.00;99.90
4520;DHT22;2272;49.226;8.108;2022-11-20T00:54:33;3.00;99.90
4520;DHT22;2272;49.226;8.108;2022-11-20T00:57:01;3.10;99.90
4520;DHT22;2272;49.226;8.108;2022-11-20T00:59:28;3.10;99.90
4520;DHT22;2272;49.226;8.108;2022-11-20T01:01:55;3.10;99.90
4520;DHT22;2272;49.226;8.108;2022-11-20T01:04:21;3.10;99.90
4520;DHT22;2272;49.226;8.108;2022-11-20T01:06:48;3.10;99.90
4520;DHT22;2272;49.226;8.108;2022-11-20T01:09:15;3.10;99.90
4520;DHT22;2272;49.226;8.108;2022-11-20T01:11:43;3.10;99.90
4520;DHT22;2272;49.226;8.108;2022-11-20T01:14:14;3.10;99.90
4520;DHT22;2272;49.226;8.108;2022-11-20T01:16:42;3.10;99.90
4520;DHT22;2272;49.226;8.108;2022-11-20T01:19:11;3.20;99.90
4520;DHT22;2272;49.226;8.108;2022-11-20T01:21:40;3.20;99.90
4520;DHT22;2272;49.226;8.108;2022-11-20T01:24:10;3.20;99.90
4520;DHT22;2272;49.226;8.108;2022-11-20T01:26:38;3.20;99.90
4520;DHT22;2272;49.226;8.108;2022-11-20T01:29:06;3.20;99.90
4520;DHT22;2272;49.226;8.108;2022-11-20T01:31:35;3.30;99.90
4520;DHT22;2272;49.226;8.108;2022-11-20T01:34:05;3.30;99.90
4520;DHT22;2272;49.226;8.108;2022-11-20T01:36:33;3.30;99.90
4520;DHT22;2272;49.226;8.108;2022-11-20T01:39:03;3.20;99.90
4520;DHT22;2272;49.226;8.108;2022-11-20T01:41:32;3.20;99.90
4520;DHT22;2272;49.226;8.108;2022-11-20T01:44:19;3.30;99.90
4520;DHT22;2272;49.226;8.108;2022-11-20T01:46:54;3.30;99.90
4520;DHT22;2272;49.226;8.108;2022-11-20T01:49:26;3.30;99.90
4520;DHT22;2272;49.226;8.108;2022-11-20T01:51:56;3.30;99.90
4520;DHT22;2272;49.226;8.108;2022-11-20T01:54:29;3.30;99.90
4520;DHT22;2272;49.226;8.108;2022-11-20T01:56:59;3.30;99.90
4520;DHT22;2272;49.226;8.108;2022-11-20T01:59:28;3.30;99.90
4520;DHT22;2272;49.226;8.108;2022-11-20T02:01:57;3.30;99.90
4520;DHT22;2272;49.226;8.108;2022-11-20T02:04:24;3.30;99.90
4520;DHT22;2272;49.226;8.108;2022-11-20T02:06:55;3.30;99.90
4520;DHT22;2272;49.226;8.108;2022-11-20T02:09:24;3.30;99.90
4520;DHT22;2272;49.226;8.108;2022-11-20T02:11:51;3.30;99.90
4520;DHT22;2272;49.226;8.108;2022-11-20T02:14:19;3.30;99.90
4520;DHT22;2272;49.226;8.108;2022-11-20T02:16:46;3.30;99.90
4520;DHT22;2272;49.226;8.108;2022-11-20T02:19:20;3.30;99.90
4520;DHT22;2272;49.226;8.108;2022-11-20T02:21:55;3.30;99.90
4520;DHT22;2272;49.226;8.108;2022-11-20T02:24:24;3.30;99.90
4520;DHT22;2272;49.226;8.108;2022-11-20T02:26:53;3.40;99.90
4520;DHT22;2272;49.226;8.108;2022-11-20T02:29:24;3.40;99.90
4520;DHT22;2272;49.226;8.108;2022-11-20T02:31:54;3.40;99.90
4520;DHT22;2272;49.226;8.108;2022-11-20T02:34:21;3.40;99.90
4520;DHT22;2272;49.226;8.108;2022-11-20T02:36:49;3.30;99.90
4520;DHT22;2272;49.226;8.108;2022-11-20T02:39:16;3.30;99.90
4520;DHT22;2272;49.226;8.108;2022-11-20T02:41:44;3.30;99.90
4520;DHT22;2272;49.226;8.108;2022-11-20T02:44:11;3.30;99.90
4520;DHT22;2272;49.226;8.108;2022-11-20T02:46:38;3.30;99.90
4520;DHT22;2272;49.226;8.108;2022-11-20T02:49:05;3.30;99.90
4520;DHT22;2272;49.226;8.108;2022-11-20T02:51:32;3.30;99.90
4520;DHT22;2272;49.226;8.108;2022-11-20T02:53:59;3.30;99.90
4520;DHT22;2272;49.226;8.108;2022-11-20T02:56:26;3.40;99.90
4520;DHT22;2272;49.226;8.108;2022-11-20T02:58:54;3.40;99.90
4520;DHT22;2272;49.226;8.108;2022-11-20T03:01:22;3.40;99.90
4520;DHT22;2272;49.226;8.108;2022-11-20T03:03:49;3.50;99.90
4520;DHT22;2272;49.226;8.108;2022-11-20T03:06:15;3.50;99.90
4520;DHT22;2272;49.226;8.108;2022-11-20T03:08:42;3.50;99.90
4520;DHT22;2272;49.226;8.108;2022-11-20T03:11:09;3.50;99.90
4520;DHT22;2272;49.226;8.108;2022-11-20T03:13:36;3.60;99.90
4520;DHT22;2272;49.226;8.108;2022-11-20T03:16:10;3.60;99.90
4520;DHT22;2272;49.226;8.108;2022-11-20T03:18:38;3.60;99.90
4520;DHT22;2272;49.226;8.108;2022-11-20T03:21:05;3.60;99.90
4520;DHT22;2272;49.226;8.108;2022-11-20T03:23:33;3.60;99.90
4520;DHT22;2272;49.226;8.108;2022-11-20T03:26:08;3.70;99.90
4520;DHT22;2272;49.226;8.108;2022-11-20T03:28:35;3.70;99.90
4520;DHT22;2272;49.226;8.108;2022-11-20T03:31:06;3.80;99.90
4520;DHT22;2272;49.226;8.108;2022-11-20T03:33:34;3.80;99.90
4520;DHT22;2272;49.226;8.108;2022-11-20T03:36:02;3.90;99.90
4520;DHT22;2272;49.226;8.108;2022-11-20T03:38:29;3.90;99.90
4520;DHT22;2272;49.226;8.108;2022-11-20T03:40:59;4.00;99.90
4520;DHT22;2272;49.226;8.108;2022-11-20T03:43:25;4.00;99.90
4520;DHT22;2272;49.226;8.108;2022-11-20T03:45:52;4.10;99.90
4520;DHT22;2272;49.226;8.108;2022-11-20T03:48:19;4.20;99.90
4520;DHT22;2272;49.226;8.108;2022-11-20T03:50:47;4.20;99.90
4520;DHT22;2272;49.226;8.108;2022-11-20T03:53:14;4.30;99.90
4520;DHT22;2272;49.226;8.108;2022-11-20T03:55:41;4.40;99.90
4520;DHT22;2272;49.226;8.108;2022-11-20T03:58:08;4.50;99.90
4520;DHT22;2272;49.226;8.108;2022-11-20T04:00:35;4.60;99.90
4520;DHT22;2272;49.226;8.108;2022-11-20T04:03:02;4.70;99.90
4520;DHT22;2272;49.226;8.108;2022-11-20T04:05:29;4.80;99.90
4520;DHT22;2272;49.226;8.108;2022-11-20T04:07:57;4.70;99.90
4520;DHT22;2272;49.226;8.108;2022-11-20T04:10:24;4.60;99.90
4520;DHT22;2272;49.226;8.108;2022-11-20T04:12:51;4.40;99.90
4520;DHT22;2272;49.226;8.108;2022-11-20T04:15:18;4.30;99.90
4520;DHT22;2272;49.226;8.108;2022-11-20T04:17:44;4.20;99.90
4520;DHT22;2272;49.226;8.108;2022-11-20T04:20:11;4.10;99.90
4520;DHT22;2272;49.226;8.108;2022-11-20T04:22:38;4.00;99.90
4520;DHT22;2272;49.226;8.108;2022-11-20T04:25:07;4.00;99.90
4520;DHT22;2272;49.226;8.108;2022-11-20T04:27:34;4.00;99.90
4520;DHT22;2272;49.226;8.108;2022-11-20T04:30:00;4.10;99.90
4520;DHT22;2272;49.226;8.108;2022-11-20T04:32:27;4.20;99.90
4520;DHT22;2272;49.226;8.108;2022-11-20T04:34:54;4.40;99.90
4520;DHT22;2272;49.226;8.108;2022-11-20T04:37:21;4.60;99.90
4520;DHT22;2272;49.226;8.108;2022-11-20T04:39:48;4.80;99.90
4520;DHT22;2272;49.226;8.108;2022-11-20T04:42:16;5.10;99.90
4520;DHT22;2272;49.226;8.108;2022-11-20T04:44:55;5.20;99.90
4520;DHT22;2272;49.226;8.108;2022-11-20T04:47:21;5.40;99.90
4520;DHT22;2272;49.226;8.108;2022-11-20T04:49:48;5.40;99.90
4520;DHT22;2272;49.226;8.108;2022-11-20T04:54:42;5.50;99.90
4520;DHT22;2272;49.226;8.108;2022-11-20T04:57:09;5.60;99.90
4520;DHT22;2272;49.226;8.108;2022-11-20T04:59:37;5.60;99.90
4520;DHT22;2272;49.226;8.108;2022-11-20T05:02:04;5.60;99.90
4520;DHT22;2272;49.226;8.108;2022-11-20T05:04:30;5.70;99.90
4520;DHT22;2272;49.226;8.108;2022-11-20T05:06:57;5.70;99.90
4520;DHT22;2272;49.226;8.108;2022-11-20T05:09:24;5.70;99.90
4520;DHT22;2272;49.226;8.108;2022-11-20T05:11:51;5.80;99.90
4520;DHT22;2272;49.226;8.108;2022-11-20T05:14:17;5.80;99.90
4520;DHT22;2272;49.226;8.108;2022-11-20T05:16:45;5.80;99.90
4520;DHT22;2272;49.226;8.108;2022-11-20T05:19:12;5.80;99.90
4520;DHT22;2272;49.226;8.108;2022-11-20T05:21:39;5.80;99.90
4520;DHT22;2272;49.226;8.108;2022-11-20T05:24:06;5.80;99.90
4520;DHT22;2272;49.226;8.108;2022-11-20T05:26:33;5.80;99.90
4520;DHT22;2272;49.226;8.108;2022-11-20T05:28:59;5.90;99.90
4520;DHT22;2272;49.226;8.108;2022-11-20T05:31:26;5.90;99.90
4520;DHT22;2272;49.226;8.108;2022-11-20T05:33:55;5.90;99.90
4520;DHT22;2272;49.226;8.108;2022-11-20T05:36:22;5.90;99.90
4520;DHT22;2272;49.226;8.108;2022-11-20T05:38:49;5.90;99.90
4520;DHT22;2272;49.226;8.108;2022-11-20T05:41:18;5.90;99.90
4520;DHT22;2272;49.226;8.108;2022-11-20T05:43:46;5.90;99.90
4520;DHT22;2272;49.226;8.108;2022-11-20T05:46:15;5.90;99.90
4520;DHT22;2272;49.226;8.108;2022-11-20T05:48:43;5.90;99.90
4520;DHT22;2272;49.226;8.108;2022-11-20T05:51:13;5.90;99.90
4520;DHT22;2272;49.226;8.108;2022-11-20T05:53:40;5.90;99.90
4520;DHT22;2272;49.226;8.108;2022-11-20T05:56:09;5.90;99.90
4520;DHT22;2272;49.226;8.108;2022-11-20T05:58:37;5.90;99.90
4520;DHT22;2272;49.226;8.108;2022-11-20T06:01:06;5.90;99.90
4520;DHT22;2272;49.226;8.108;2022-11-20T06:03:33;5.90;99.90
4520;DHT22;2272;49.226;8.108;2022-11-20T06:06:00;5.90;99.90
4520;DHT22;2272;49.226;8.108;2022-11-20T06:08:29;5.90;99.90
4520;DHT22;2272;49.226;8.108;2022-11-20T06:10:56;5.90;99.90
4520;DHT22;2272;49.226;8.108;2022-11-20T06:13:23;5.80;99.90
4520;DHT22;2272;49.226;8.108;2022-11-20T06:15:50;5.90;99.90
4520;DHT22;2272;49.226;8.108;2022-11-20T06:18:18;5.90;99.90
4520;DHT22;2272;49.226;8.108;2022-11-20T06:20:45;5.90;99.90
4520;DHT22;2272;49.226;8.108;2022-11-20T06:23:13;5.90;99.90
4520;DHT22;2272;49.226;8.108;2022-11-20T06:25:42;5.90;99.90
4520;DHT22;2272;49.226;8.108;2022-11-20T06:28:09;5.90;99.90
4520;DHT22;2272;49.226;8.108;2022-11-20T06:30:36;5.90;99.90
4520;DHT22;2272;49.226;8.108;2022-11-20T06:33:03;6.00;99.90
4520;DHT22;2272;49.226;8.108;2022-11-20T06:35:29;5.90;99.90
4520;DHT22;2272;49.226;8.108;2022-11-20T06:37:56;5.90;99.90
4520;DHT22;2272;49.226;8.108;2022-11-20T06:40:23;6.00;99.90
4520;DHT22;2272;49.226;8.108;2022-11-20T06:42:53;6.00;99.90
4520;DHT22;2272;49.226;8.108;2022-11-20T06:45:20;6.00;99.90
4520;DHT22;2272;49.226;8.108;2022-11-20T06:47:46;6.00;99.90
4520;DHT22;2272;49.226;8.108;2022-11-20T06:50:13;6.00;99.90
4520;DHT22;2272;49.226;8.108;2022-11-20T06:52:40;6.00;99.90
4520;DHT22;2272;49.226;8.108;2022-11-20T06:55:07;6.00;99.90
4520;DHT22;2272;49.226;8.108;2022-11-20T06:57:34;6.10;99.90
4520;DHT22;2272;49.226;8.108;2022-11-20T07:00:03;6.10;99.90
4520;DHT22;2272;49.226;8.108;2022-11-20T07:02:30;6.10;99.90
4520;DHT22;2272;49.226;8.108;2022-11-20T07:04:56;6.10;99.90
4520;DHT22;2272;49.226;8.108;2022-11-20T07:07:23;6.10;99.90
4520;DHT22;2272;49.226;8.108;2022-11-20T07:09:50;6.10;99.90
4520;DHT22;2272;49.226;8.108;2022-11-20T07:12:17;6.10;99.90
4520;DHT22;2272;49.226;8.108;2022-11-20T07:14:44;6.00;99.90
4520;DHT22;2272;49.226;8.108;2022-11-20T07:17:13;6.00;99.90
4520;DHT22;2272;49.226;8.108;2022-11-20T07:19:39;6.10;99.90
4520;DHT22;2272;49.226;8.108;2022-11-20T07:22:08;6.10;99.90
4520;DHT22;2272;49.226;8.108;2022-11-20T07:24:35;6.10;99.90
4520;DHT22;2272;49.226;8.108;2022-11-20T07:27:02;6.20;99.90
4520;DHT22;2272;49.226;8.108;2022-11-20T07:29:29;6.20;99.90
4520;DHT22;2272;49.226;8.108;2022-11-20T07:31:56;6.20;99.90
4520;DHT22;2272;49.226;8.108;2022-11-20T07:34:24;6.20;99.90
4520;DHT22;2272;49.226;8.108;2022-11-20T07:36:51;6.20;99.90
4520;DHT22;2272;49.226;8.108;2022-11-20T07:39:18;6.20;99.90
4520;DHT22;2272;49.226;8.108;2022-11-20T07:41:45;6.30;99.90
4520;DHT22;2272;49.226;8.108;2022-11-20T07:44:12;6.30;99.90
4520;DHT22;2272;49.226;8.108;2022-11-20T07:46:39;6.30;99.90
4520;DHT22;2272;49.226;8.108;2022-11-20T07:49:06;6.30;99.90
4520;DHT22;2272;49.226;8.108;2022-11-20T07:51:35;6.30;99.90
4520;DHT22;2272;49.226;8.108;2022-11-20T07:54:02;6.30;99.90
4520;DHT22;2272;49.226;8.108;2022-11-20T07:56:29;6.30;99.90
4520;DHT22;2272;49.226;8.108;2022-11-20T07:58:56;6.30;99.90
4520;DHT22;2272;49.226;8.108;2022-11-20T08:01:22;6.40;99.90
4520;DHT22;2272;49.226;8.108;2022-11-20T08:03:49;6.40;99.90
4520;DHT22;2272;49.226;8.108;2022-11-20T08:06:16;6.40;99.90
4520;DHT22;2272;49.226;8.108;2022-11-20T08:08:45;6.40;99.90
4520;DHT22;2272;49.226;8.108;2022-11-20T08:11:12;6.50;99.90
4520;DHT22;2272;49.226;8.108;2022-11-20T08:13:56;6.50;99.90
4520;DHT22;2272;49.226;8.108;2022-11-20T08:16:38;6.50;99.90
4520;DHT22;2272;49.226;8.108;2022-11-20T08:19:05;6.50;99.90
4520;DHT22;2272;49.226;8.108;2022-11-20T08:21:32;6.50;99.90
4520;DHT22;2272;49.226;8.108;2022-11-20T08:24:01;6.50;99.90
4520;DHT22;2272;49.226;8.108;2022-11-20T08:26:28;6.60;99.90
4520;DHT22;2272;49.226;8.108;2022-11-20T08:28:55;6.70;99.90
4520;DHT22;2272;49.226;8.108;2022-11-20T08:31:22;6.80;99.90
4520;DHT22;2272;49.226;8.108;2022-11-20T08:33:49;6.80;99.90
4520;DHT22;2272;49.226;8.108;2022-11-20T08:36:16;6.90;99.90
4520;DHT22;2272;49.226;8.108;2022-11-20T08:38:47;7.00;99.90
4520;DHT22;2272;49.226;8.108;2022-11-20T08:41:16;7.10;99.90
4520;DHT22;2272;49.226;8.108;2022-11-20T08:43:54;7.10;99.90
4520;DHT22;2272;49.226;8.108;2022-11-20T08:46:21;7.20;99.90
4520;DHT22;2272;49.226;8.108;2022-11-20T08:48:48;7.30;99.90
4520;DHT22;2272;49.226;8.108;2022-11-20T08:51:15;7.30;99.90
4520;DHT22;2272;49.226;8.108;2022-11-20T08:53:42;7.30;99.90
4520;DHT22;2272;49.226;8.108;2022-11-20T08:56:09;7.30;99.90
4520;DHT22;2272;49.226;8.108;2022-11-20T08:58:38;7.30;99.90
4520;DHT22;2272;49.226;8.108;2022-11-20T09:01:05;7.30;99.90
4520;DHT22;2272;49.226;8.108;2022-11-20T09:03:32;7.30;99.90
4520;DHT22;2272;49.226;8.108;2022-11-20T09:05:59;7.40;99.90
4520;DHT22;2272;49.226;8.108;2022-11-20T09:08:27;7.40;99.90
4520;DHT22;2272;49.226;8.108;2022-11-20T09:10:54;7.50;99.90
4520;DHT22;2272;49.226;8.108;2022-11-20T09:13:22;7.50;99.90
4520;DHT22;2272;49.226;8.108;2022-11-20T09:15:54;7.60;99.90
4520;DHT22;2272;49.226;8.108;2022-11-20T09:18:21;7.70;99.90
4520;DHT22;2272;49.226;8.108;2022-11-20T09:20:48;7.80;99.90
4520;DHT22;2272;49.226;8.108;2022-11-20T09:23:15;7.90;99.90
4520;DHT22;2272;49.226;8.108;2022-11-20T09:25:43;8.00;99.90
4520;DHT22;2272;49.226;8.108;2022-11-20T09:28:09;8.10;99.90
4520;DHT22;2272;49.226;8.108;2022-11-20T09:30:36;8.10;99.90
4520;DHT22;2272;49.226;8.108;2022-11-20T09:33:05;8.20;99.90
4520;DHT22;2272;49.226;8.108;2022-11-20T09:35:32;8.20;99.90
4520;DHT22;2272;49.226;8.108;2022-11-20T09:38:04;8.10;99.90
4520;DHT22;2272;49.226;8.108;2022-11-20T09:40:31;8.00;99.90
4520;DHT22;2272;49.226;8.108;2022-11-20T09:43:03;7.90;99.90
4520;DHT22;2272;49.226;8.108;2022-11-20T09:45:44;7.90;99.90
4520;DHT22;2272;49.226;8.108;2022-11-20T09:48:24;7.90;99.90
4520;DHT22;2272;49.226;8.108;2022-11-20T09:50:57;7.90;99.90
4520;DHT22;2272;49.226;8.108;2022-11-20T09:53:32;7.90;99.90
4520;DHT22;2272;49.226;8.108;2022-11-20T09:56:02;8.00;99.90
4520;DHT22;2272;49.226;8.108;2022-11-20T09:58:33;8.10;99.90
4520;DHT22;2272;49.226;8.108;2022-11-20T10:01:07;8.10;99.90
4520;DHT22;2272;49.226;8.108;2022-11-20T10:03:42;8.10;99.90
4520;DHT22;2272;49.226;8.108;2022-11-20T10:06:15;8.10;99.90
4520;DHT22;2272;49.226;8.108;2022-11-20T10:08:45;8.30;99.90
4520;DHT22;2272;49.226;8.108;2022-11-20T10:11:19;8.30;99.90
4520;DHT22;2272;49.226;8.108;2022-11-20T10:13:54;8.50;99.90
4520;DHT22;2272;49.226;8.108;2022-11-20T10:16:35;8.70;99.90
4520;DHT22;2272;49.226;8.108;2022-11-20T10:19:19;9.00;99.90
4520;DHT22;2272;49.226;8.108;2022-11-20T10:21:58;9.30;99.90
4520;DHT22;2272;49.226;8.108;2022-11-20T10:24:41;9.50;99.90
4520;DHT22;2272;49.226;8.108;2022-11-20T10:27:21;9.50;99.90
4520;DHT22;2272;49.226;8.108;2022-11-20T10:30:00;9.50;99.90
4520;DHT22;2272;49.226;8.108;2022-11-20T10:32:33;9.50;99.90
4520;DHT22;2272;49.226;8.108;2022-11-20T10:35:06;9.60;99.90
4520;DHT22;2272;49.226;8.108;2022-11-20T10:37:38;9.70;99.90
4520;DHT22;2272;49.226;8.108;2022-11-20T10:40:20;10.00;99.90
4520;DHT22;2272;49.226;8.108;2022-11-20T10:42:52;10.20;99.90
4520;DHT22;2272;49.226;8.108;2022-11-20T10:45:34;10.10;99.90
4520;DHT22;2272;49.226;8.108;2022-11-20T10:48:16;9.90;99.90
4520;DHT22;2272;49.226;8.108;2022-11-20T10:51:03;9.60;99.90
4520;DHT22;2272;49.226;8.108;2022-11-20T10:53:57;9.40;99.90
4520;DHT22;2272;49.226;8.108;2022-11-20T10:56:31;9.30;99.90
4520;DHT22;2272;49.226;8.108;2022-11-20T11:01:53;9.50;99.90
4520;DHT22;2272;49.226;8.108;2022-11-20T11:04:33;9.90;99.90
4520;DHT22;2272;49.226;8.108;2022-11-20T11:07:11;10.10;99.90
4520;DHT22;2272;49.226;8.108;2022-11-20T11:09:43;10.10;99.90
4520;DHT22;2272;49.226;8.108;2022-11-20T11:12:10;10.00;99.90
4520;DHT22;2272;49.226;8.108;2022-11-20T11:14:45;10.00;99.90
4520;DHT22;2272;49.226;8.108;2022-11-20T11:17:24;10.00;99.90
4520;DHT22;2272;49.226;8.108;2022-11-20T11:20:05;10.00;99.90
4520;DHT22;2272;49.226;8.108;2022-11-20T11:22:42;9.80;99.90
4520;DHT22;2272;49.226;8.108;2022-11-20T11:25:26;9.60;99.90
4520;DHT22;2272;49.226;8.108;2022-11-20T11:27:55;9.50;99.90
4520;DHT22;2272;49.226;8.108;2022-11-20T11:30:24;9.50;99.90
4520;DHT22;2272;49.226;8.108;2022-11-20T11:32:51;9.80;99.90
4520;DHT22;2272;49.226;8.108;2022-11-20T11:35:28;10.00;99.90
4520;DHT22;2272;49.226;8.108;2022-11-20T11:38:04;10.20;99.90
4520;DHT22;2272;49.226;8.108;2022-11-20T11:40:35;10.20;99.90
4520;DHT22;2272;49.226;8.108;2022-11-20T11:43:05;10.20;99.90
4520;DHT22;2272;49.226;8.108;2022-11-20T11:45:53;10.20;99.90
4520;DHT22;2272;49.226;8.108;2022-11-20T11:48:20;10.20;99.90
4520;DHT22;2272;49.226;8.108;2022-11-20T11:50:48;10.30;99.90
4520;DHT22;2272;49.226;8.108;2022-11-20T11:53:18;10.30;99.90
4520;DHT22;2272;49.226;8.108;2022-11-20T11:55:47;10.40;99.90
4520;DHT22;2272;49.226;8.108;2022-11-20T11:58:27;10.50;99.90
4520;DHT22;2272;49.226;8.108;2022-11-20T12:01:01;10.70;99.90
4520;DHT22;2272;49.226;8.108;2022-11-20T12:03:35;10.70;99.90
4520;DHT22;2272;49.226;8.108;2022-11-20T12:06:06;10.60;99.90
4520;DHT22;2272;49.226;8.108;2022-11-20T12:08:43;10.40;99.90
4520;DHT22;2272;49.226;8.108;2022-11-20T12:11:15;10.20;99.90
4520;DHT22;2272;49.226;8.108;2022-11-20T12:13:48;10.10;99.90
4520;DHT22;2272;49.226;8.108;2022-11-20T12:16:19;10.30;99.90
4520;DHT22;2272;49.226;8.108;2022-11-20T12:18:49;10.40;99.90
4520;DHT22;2272;49.226;8.108;2022-11-20T12:21:23;10.40;99.90
4520;DHT22;2272;49.226;8.108;2022-11-20T12:24:16;10.50;99.90
4520;DHT22;2272;49.226;8.108;2022-11-20T12:26:57;10.40;99.90
4520;DHT22;2272;49.226;8.108;2022-11-20T12:29:36;10.40;99.90
4520;DHT22;2272;49.226;8.108;2022-11-20T12:32:35;10.30;99.90
4520;DHT22;2272;49.226;8.108;2022-11-20T12:35:14;10.40;99.90
4520;DHT22;2272;49.226;8.108;2022-11-20T12:37:53;10.60;99.90
4520;DHT22;2272;49.226;8.108;2022-11-20T12:40:30;10.70;99.90
4520;DHT22;2272;49.226;8.108;2022-11-20T12:43:12;10.60;99.90
4520;DHT22;2272;49.226;8.108;2022-11-20T12:46:29;10.40;99.90
4520;DHT22;2272;49.226;8.108;2022-11-20T12:49:17;10.30;99.90
4520;DHT22;2272;49.226;8.108;2022-11-20T12:52:09;10.10;99.90
4520;DHT22;2272;49.226;8.108;2022-11-20T12:57:37;9.60;99.90
4520;DHT22;2272;49.226;8.108;2022-11-20T13:00:11;9.40;99.90
4520;DHT22;2272;49.226;8.108;2022-11-20T13:03:00;9.30;99.90
4520;DHT22;2272;49.226;8.108;2022-11-20T13:05:37;9.30;99.90
4520;DHT22;2272;49.226;8.108;2022-11-20T13:08:11;9.20;99.90
4520;DHT22;2272;49.226;8.108;2022-11-20T13:10:45;9.20;99.90
4520;DHT22;2272;49.226;8.108;2022-11-20T13:13:19;9.30;99.90
4520;DHT22;2272;49.226;8.108;2022-11-20T13:15:54;9.30;99.90
4520;DHT22;2272;49.226;8.108;2022-11-20T13:18:23;9.30;99.90
4520;DHT22;2272;49.226;8.108;2022-11-20T13:20:49;9.30;99.90
4520;DHT22;2272;49.226;8.108;2022-11-20T13:23:24;9.40;99.90
4520;DHT22;2272;49.226;8.108;2022-11-20T13:26:03;9.40;99.90
4520;DHT22;2272;49.226;8.108;2022-11-20T13:28:32;9.40;99.90
4520;DHT22;2272;49.226;8.108;2022-11-20T13:30:59;9.30;99.90
4520;DHT22;2272;49.226;8.108;2022-11-20T13:33:30;9.30;99.90
4520;DHT22;2272;49.226;8.108;2022-11-20T13:35:59;9.20;99.90
4520;DHT22;2272;49.226;8.108;2022-11-20T13:38:27;9.20;99.90
4520;DHT22;2272;49.226;8.108;2022-11-20T13:40:55;9.20;99.90
4520;DHT22;2272;49.226;8.108;2022-11-20T13:43:28;9.20;99.90
4520;DHT22;2272;49.226;8.108;2022-11-20T13:45:58;9.10;99.90
4520;DHT22;2272;49.226;8.108;2022-11-20T13:48:29;9.10;99.90
4520;DHT22;2272;49.226;8.108;2022-11-20T13:51:09;9.00;99.90
4520;DHT22;2272;49.226;8.108;2022-11-20T13:53:56;8.90;99.90
4520;DHT22;2272;49.226;8.108;2022-11-20T13:56:34;8.80;99.90
4520;DHT22;2272;49.226;8.108;2022-11-20T13:59:09;8.80;99.90
4520;DHT22;2272;49.226;8.108;2022-11-20T14:01:44;8.70;99.90
4520;DHT22;2272;49.226;8.108;2022-11-20T14:04:15;8.70;99.90
4520;DHT22;2272;49.226;8.108;2022-11-20T14:06:46;8.70;99.90
4520;DHT22;2272;49.226;8.108;2022-11-20T14:09:25;8.70;99.90
4520;DHT22;2272;49.226;8.108;2022-11-20T14:11:52;8.70;99.90
4520;DHT22;2272;49.226;8.108;2022-11-20T14:14:21;8.80;99.90
4520;DHT22;2272;49.226;8.108;2022-11-20T14:16:51;8.70;99.90
4520;DHT22;2272;49.226;8.108;2022-11-20T14:19:26;8.60;99.90
4520;DHT22;2272;49.226;8.108;2022-11-20T14:22:05;8.60;99.90
4520;DHT22;2272;49.226;8.108;2022-11-20T14:24:33;8.50;99.90
4520;DHT22;2272;49.226;8.108;2022-11-20T14:26:59;8.50;99.90
4520;DHT22;2272;49.226;8.108;2022-11-20T14:29:29;8.40;99.90
4520;DHT22;2272;49.226;8.108;2022-11-20T14:31:58;8.30;99.90
4520;DHT22;2272;49.226;8.108;2022-11-20T14:34:28;8.30;99.90
4520;DHT22;2272;49.226;8.108;2022-11-20T14:36:57;8.20;99.90
4520;DHT22;2272;49.226;8.108;2022-11-20T14:39:29;8.10;99.90
4520;DHT22;2272;49.226;8.108;2022-11-20T14:41:57;8.10;99.90
4520;DHT22;2272;49.226;8.108;2022-11-20T14:44:27;8.10;99.90
4520;DHT22;2272;49.226;8.108;2022-11-20T14:46:55;8.00;99.90
4520;DHT22;2272;49.226;8.108;2022-11-20T14:49:24;8.00;99.90
4520;DHT22;2272;49.226;8.108;2022-11-20T14:51:59;7.90;99.90
4520;DHT22;2272;49.226;8.108;2022-11-20T14:54:26;7.90;99.90
4520;DHT22;2272;49.226;8.108;2022-11-20T14:56:55;7.80;99.90
4520;DHT22;2272;49.226;8.108;2022-11-20T14:59:23;7.70;99.90
4520;DHT22;2272;49.226;8.108;2022-11-20T15:01:55;7.60;99.90
4520;DHT22;2272;49.226;8.108;2022-11-20T15:04:24;7.60;99.90
4520;DHT22;2272;49.226;8.108;2022-11-20T15:06:53;7.60;99.90
4520;DHT22;2272;49.226;8.108;2022-11-20T15:09:21;7.50;99.90
4520;DHT22;2272;49.226;8.108;2022-11-20T15:11:54;7.50;99.90
4520;DHT22;2272;49.226;8.108;2022-11-20T15:14:22;7.50;99.90
4520;DHT22;2272;49.226;8.108;2022-11-20T15:16:49;7.40;99.90
4520;DHT22;2272;49.226;8.108;2022-11-20T15:19:18;7.40;99.90
4520;DHT22;2272;49.226;8.108;2022-11-20T15:21:47;7.40;99.90
4520;DHT22;2272;49.226;8.108;2022-11-20T15:24:14;7.40;99.90
4520;DHT22;2272;49.226;8.108;2022-11-20T15:26:42;7.30;99.90
4520;DHT22;2272;49.226;8.108;2022-11-20T15:29:09;7.30;99.90
4520;DHT22;2272;49.226;8.108;2022-11-20T15:31:37;7.30;99.90
4520;DHT22;2272;49.226;8.108;2022-11-20T15:34:10;7.20;99.90
4520;DHT22;2272;49.226;8.108;2022-11-20T15:36:37;7.20;99.90
4520;DHT22;2272;49.226;8.108;2022-11-20T15:39:06;7.20;99.90
4520;DHT22;2272;49.226;8.108;2022-11-20T15:41:34;7.20;99.90
4520;DHT22;2272;49.226;8.108;2022-11-20T15:44:01;7.20;99.90
4520;DHT22;2272;49.226;8.108;2022-11-20T15:46:29;7.20;99.90
4520;DHT22;2272;49.226;8.108;2022-11-20T15:48:59;7.10;99.90
4520;DHT22;2272;49.226;8.108;2022-11-20T15:51:29;7.10;99.90
4520;DHT22;2272;49.226;8.108;2022-11-20T15:53:56;7.10;99.90
4520;DHT22;2272;49.226;8.108;2022-11-20T15:56:24;7.10;99.90
4520;DHT22;2272;49.226;8.108;2022-11-20T15:58:51;7.00;99.90
4520;DHT22;2272;49.226;8.108;2022-11-20T16:01:20;6.90;99.90
4520;DHT22;2272;49.226;8.108;2022-11-20T16:03:48;6.80;99.90
4520;DHT22;2272;49.226;8.108;2022-11-20T16:06:15;6.80;99.90
4520;DHT22;2272;49.226;8.108;2022-11-20T16:08:42;6.80;99.90
4520;DHT22;2272;49.226;8.108;2022-11-20T16:11:11;6.70;99.90
4520;DHT22;2272;49.226;8.108;2022-11-20T16:13:40;6.70;99.90
4520;DHT22;2272;49.226;8.108;2022-11-20T16:16:27;6.70;99.90
4520;DHT22;2272;49.226;8.108;2022-11-20T16:18:55;6.60;99.90
4520;DHT22;2272;49.226;8.108;2022-11-20T16:21:23;6.70;99.90
4520;DHT22;2272;49.226;8.108;2022-11-20T16:23:53;6.70;99.90
4520;DHT22;2272;49.226;8.108;2022-11-20T16:26:20;6.70;99.90
4520;DHT22;2272;49.226;8.108;2022-11-20T16:28:48;6.70;99.90
4520;DHT22;2272;49.226;8.108;2022-11-20T16:31:16;6.70;99.90
4520;DHT22;2272;49.226;8.108;2022-11-20T16:33:48;6.80;99.90
4520;DHT22;2272;49.226;8.108;2022-11-20T16:36:15;6.70;99.90
4520;DHT22;2272;49.226;8.108;2022-11-20T16:38:42;6.80;99.90
4520;DHT22;2272;49.226;8.108;2022-11-20T16:41:09;6.80;99.90
4520;DHT22;2272;49.226;8.108;2022-11-20T16:43:44;6.80;99.90